• Join FlightAware (Why Join?)
  • Login
  • US Flag 
01:03AM EDT


 

Airport Tracker/Info


-or-


 

Live Flight TrackerFlight Track Log ✈ AWE3374 ✈ 12-Apr-2014 ✈ KDCA - KMCO

Flight Track Log - Related Links

Times and Time Zones

All times are in EDT time to prevent confusion due to time zone crossing. See the AWE3374 flight status page for this flight to view local times or setup timezone preferences in your user account.

Time Position Orientation Groundspeed Altitude Reporting Facility
EDT Latitude Longitude Course Direction KTS MPH feet Rate Location/Type
02:28PM 38.8775 -77.0522 201° Southwest 168 193 1,400  Level Washington Center
02:29PM 38.9194 -77.1022 317° Northwest 210 242 3,200 2,700 Climbing Washington Center
02:30PM 38.9714 -77.1903 307° West 255 293 7,100 3,600 Climbing Washington Center
02:31PM 38.6318 -77.2849 218° Southwest  Level FlightAware Approximate
02:31PM 38.9822 -77.2822 279° West 261 300 10,600  Level Washington Center
02:32PM 38.5525 -77.3642 218° Southwest  Level FlightAware Approximate
02:32PM 38.9133 -77.3317 209° Southwest 290 334 12,900  Level Washington Center
02:33PM 38.4795 -77.4527 225° Southwest  Level FlightAware Approximate
02:33PM 38.8303 -77.3694 200° South 307 353 14,900  Level Washington Center
02:34PM 38.4029 -77.5402 201° Southwest  Level FlightAware Approximate
02:34PM 38.7419 -77.4100 200° South 327 376 17,600  Level Washington Center
02:36PM 38.6469 -77.4528 199° South 338 389 19,700 1,860 Climbing Washington Center
02:37PM 38.5558 -77.4953 200° South 357 411 21,400 1,620 Climbing Washington Center
02:38PM 38.4547 -77.5408 199° South 376 433 23,100 1,800 Climbing Washington Center
02:39PM 38.3536 -77.6339 216° Southwest 376 433 25,200 1,680 Climbing Washington Center
02:40PM 38.2869 -77.7381 231° Southwest 376 433 26,600 1,320 Climbing Washington Center
02:41PM 38.2169 -77.8444 230° Southwest 389 448 28,000 1,200 Climbing Washington Center
02:42PM 38.1367 -77.9431 224° Southwest 399 459 29,200 1,080 Climbing Washington Center
02:43PM 38.0458 -78.0342 218° Southwest 412 474 30,300 960 Climbing Washington Center
02:44PM 37.9414 -78.1381 218° Southwest 419 482 31,300 1,080 Climbing Washington Center
02:45PM 37.8433 -78.2364 218° Southwest 424 488 32,600 1,020 Climbing Washington Center
02:46PM 37.7544 -78.3247 218° Southwest 421 484 33,500 900 Climbing Washington Center
02:47PM 37.6661 -78.4131 218° Southwest 418 481 34,500 900 Climbing Washington Center
02:48PM 37.5592 -78.5181 218° Southwest 417 480 35,400 720 Climbing Washington Center
02:49PM 37.4708 -78.6064 218° Southwest 416 479 36,000 240 Climbing Washington Center
02:50PM 37.3825 -78.6928 218° Southwest 415 478 36,000  Level Washington Center
02:51PM 37.2933 -78.7817 218° Southwest 415 478 36,000  Level Washington Center
02:52PM 37.1850 -78.8869 218° Southwest 417 480 36,000  Level Washington Center
02:53PM 37.0953 -78.9736 218° Southwest 417 480 36,000  Level Washington Center
02:54PM 37.0050 -79.0619 218° Southwest 417 480 36,000  Level Washington Center
02:55PM 36.8961 -79.1686 218° Southwest 423 487 36,000  Level Washington Center
02:56PM 36.8056 -79.2544 217° Southwest 420 483 36,000  Level Washington Center
02:57PM 36.7158 -79.3406 218° Southwest 419 482 36,000  Level Washington Center
02:58PM 36.6253 -79.4250 217° Southwest 418 481 36,000  Level Washington Center
02:59PM 36.5164 -79.5344 219° Southwest 425 489 36,000  Level Washington Center
03:00PM 36.4253 -79.6197 217° Southwest 423 487 36,000  Level Washington Center
03:01PM 36.3281 -79.7042 215° Southwest 439 505 36,000  Level Atlanta Center
03:02PM 36.2372 -79.7914 218° Southwest 434 499 36,000  Level Atlanta Center
03:03PM 36.1422 -79.8811 217° Southwest 434 499 36,000  Level Atlanta Center
03:04PM 36.0572 -79.9575 216° Southwest 428 493 36,000  Level Atlanta Center
03:05PM 35.9486 -80.0194 205° Southwest 428 493 36,000  Level Atlanta Center
03:06PM 35.8314 -80.0661 198° South 433 498 36,000  Level Atlanta Center
03:07PM 35.7033 -80.1056 194° South 439 505 36,000  Level Atlanta Center
03:08PM 35.5875 -80.1444 195° South 439 505 36,000  Level Atlanta Center
03:09PM 35.4678 -80.1833 195° South 439 505 36,000  Level Atlanta Center
03:10PM 35.3500 -80.2192 194° South 439 505 36,000  Level Atlanta Center
03:11PM 35.2303 -80.2578 195° South 444 511 36,000  Level Atlanta Center
03:13PM 35.0717 -80.3078 194° South 443 510 36,000  Level Washington Center
03:13PM 34.9911 -80.3333 195° South 446 513 36,000  Level Jacksonville Center
03:14PM 34.8669 -80.3725 195° South 454 522 36,000  Level Jacksonville Center
03:15PM 34.7425 -80.4142 195° South 449 517 36,000  Level Jacksonville Center
03:16PM 34.6242 -80.4478 193° South 444 511 36,000  Level Jacksonville Center
03:17PM 34.5042 -80.4864 195° South 444 511 36,000  Level Jacksonville Center
03:18PM 34.3814 -80.5125 190° South 449 517 36,000  Level Jacksonville Center
03:19PM 34.2569 -80.5411 191° South 455 524 36,000  Level Jacksonville Center
03:20PM 34.1322 -80.5694 191° South 455 524 36,000  Level Jacksonville Center
03:21PM 34.0097 -80.5978 191° South 455 524 36,000  Level Jacksonville Center
03:22PM 33.8850 -80.6261 191° South 455 524 36,000  Level Jacksonville Center
03:23PM 33.7622 -80.6542 191° South 455 524 36,000  Level Jacksonville Center
03:24PM 33.6417 -80.6797 190° South 450 518 36,000  Level Jacksonville Center
03:25PM 33.5211 -80.7050 190° South 450 518 36,000  Level Jacksonville Center
03:26PM 33.3942 -80.7331 190° South 450 518 36,000  Level Jacksonville Center
03:27PM 33.2736 -80.7608 191° South 450 518 36,000  Level Jacksonville Center
03:28PM 33.1636 -80.7858 191° South 450 518 36,000  Level Jacksonville Center
03:29PM 33.0408 -80.8111 190° South 450 518 36,000  Level Jacksonville Center
03:30PM 32.9203 -80.8361 190° South 450 518 36,000  Level Jacksonville Center
03:31PM 32.8036 -80.8636 191° South 445 512 36,000  Level Jacksonville Center
03:32PM 32.6872 -80.8858 189° South 440 506 36,000  Level Jacksonville Center
03:33PM 32.5686 -80.9106 190° South 435 501 36,000  Level Jacksonville Center
03:34PM 32.4500 -80.9378 191° South 435 501 36,000  Level Jacksonville Center
03:35PM 32.3442 -80.9744 196° South 407 468 36,000  Level Jacksonville Center
03:36PM 32.2367 -81.0481 210° Southwest 407 468 36,000  Level Jacksonville Center
03:37PM 32.1436 -81.1111 210° Southwest 421 484 36,000  Level Jacksonville Center
03:38PM 32.0442 -81.1744 208° Southwest 421 484 36,000  Level Jacksonville Center
03:39PM 31.9253 -81.1792 182° South 403 464 36,000  Level Jacksonville Center
03:40PM 31.7978 -81.1767 179° South 414 476 36,000  Level Jacksonville Center
03:41PM 31.6872 -81.1736 179° South 428 493 36,000  Level Jacksonville Center
03:42PM 31.5556 -81.1714 179° South 434 499 36,000  Level Jacksonville Center
03:43PM 31.4344 -81.1686 179° South 439 505 36,000  Level Jacksonville Center
03:44PM 31.3156 -81.1683 180° South 439 505 36,000  Level Jacksonville Center
03:45PM 31.1944 -81.1633 178° South 441 507 36,000 -240 Level Jacksonville Center
03:46PM 31.0753 -81.1631 180° South 441 507 35,600 -600 Descending Jacksonville Center
03:47PM 30.9542 -81.1606 179° South 441 507 34,900 -780 Descending Jacksonville Center
03:48PM 30.8372 -81.1578 179° South 436 502 34,100 -480 Descending Jacksonville Center
03:49PM 30.7181 -81.1553 179° South 436 502 34,000 -180 Descending Jacksonville Center
03:50PM 30.6117 -81.1522 179° South 436 502 33,800 -600 Descending Jacksonville Center
03:51PM 30.4883 -81.1497 179° South 436 502 32,800 -1,080 Descending Jacksonville Center
03:52PM 30.3672 -81.1469 179° South 441 507 31,700 -1,140 Descending Jacksonville Center
03:53PM 30.2483 -81.1444 179° South 441 507 30,600 -1,140 Descending Jacksonville Center
03:54PM 30.1272 -81.1394 178° South 441 507 29,500 -1,500 Descending Jacksonville Center
03:55PM 30.0061 -81.1369 179° South 441 507 27,700 -1,860 Descending Jacksonville Center
03:56PM 29.8889 -81.1317 178° South 435 501 25,800 -1,860 Descending Jacksonville Center
03:57PM 29.7761 -81.1292 179° South 424 488 24,000 -1,800 Descending Jacksonville Center
03:58PM 29.6656 -81.1239 178° South 412 474 22,300 -1,800 Descending Jacksonville Center
03:59PM 29.5550 -81.1258 181° South 400 460 20,500 -1,800 Descending Jacksonville Center
04:00PM 29.4419 -81.1161 176° South 373 429 18,700 -1,800 Descending Jacksonville Center
04:01PM 29.3397 -81.1156 180° South 368 423 17,000 -1,680 Descending Jacksonville Center
04:02PM 29.2375 -81.1100 177° South 368 423 15,400 -1,620 Descending Jacksonville Center
04:03PM 29.1372 -81.1025 176° South 361 415 13,800 -1,560 Descending Jacksonville Center
04:04PM 29.0431 -81.0947 176° South 348 400 12,300 -1,320 Descending Jacksonville Center
04:05PM 28.9594 -81.0819 172° South 320 368 11,200 -1,440 Descending Jacksonville Center
04:06PM 28.8778 -81.0692 172° South 307 353 9,500 -1,740 Descending Jacksonville Center
04:07PM 28.8167 -81.0500 165° South 282 325 8,200 -1,500 Descending Orlando TRACON
04:08PM 28.7667 -81.1167 229° Southwest 266 306 6,800 -1,140 Descending Orlando TRACON
04:09PM 28.7500 -81.1833 254° West 243 280 6,000 -1,080 Descending Orlando TRACON
04:10PM 28.7000 -81.2333 221° Southwest 229 264 4,800 -1,380 Descending Orlando TRACON
04:11PM 28.6333 -81.2667 204° Southwest 220 253 3,200 -960 Descending Orlando TRACON
04:12PM 28.5833 -81.2833 196° South 183 211 2,900 -660 Descending Orlando TRACON
04:13PM 28.5500 -81.2833 180° South 182 209 2,000 -1,020 Descending Orlando TRACON
04:14PM 28.5000 -81.2833 180° South 181 208 1,100 -1,020 Descending Orlando TRACON
04:16PM 28.4294 -81.3090 186° South  Level Estimated
04:23PM 28.4294 -81.3090 186° South  Level Estimated
04:24PM 28.4294 -81.3090 148° Southeast  Level Estimated
04:25PM 28.4294 -81.3090 186° South  Level Estimated
04:26PM 28.4294 -81.3090 148° Southeast  Level Estimated